»·PEaware :: WAT175 KSAN-KLAS

WAT175 :: KSAN-KLAS

FLIGHT INFORMATION

Flight Status: Arrived
Operator:
Walker Air Transport
More flights by this operator :: More flights under this callsign
Pilot: Michael C. (27126)
Aircraft: BOEING 737-800
(B738)
More flights by this aircraft type
Origin: KSAN San Diego Intl-Lindbergh
United States
Destination: KLAS McCarran Intl
United States
More flights between these airports :: More routes between these airports
Route: PADRZ2 CHKNN SEBBY YELAH MISEN KEPEC6
File this flight plan on PilotEdge
Remarks: RMK / SIMBRIEF
Altitude:
(Current/Filed)
27,000ft
Speed:
(Current/Filed)
440kts
Departed: 23-Jul-20 05:06 PM
Arrived: 23-Jul-20 05:56 PM
Distance/Time
Traveled:
225nm/0:50
Distance/Time
To Go:
Arrived

Flight Plot

Page will automatically refresh every two minutes.

Flight plan parsing failed; only flown route is shown


Map Options




Map Legend


Flown Route
Filed Route
Departure Airport
Arrival Airport
Navaid (VOR, NDB)
Fix

Horizontal Profiles

Position Reports

Time Latitude Longitude Heading Altitude Ground
Speed
23-Jul-20 16:33 32.733797 -117.202142 153 25ft 0kts
23-Jul-20 16:34 32.733797 -117.202142 153 25ft 0kts
23-Jul-20 16:35 32.733797 -117.202142 153 25ft 0kts
23-Jul-20 16:36 32.733797 -117.202142 153 25ft 0kts
23-Jul-20 16:37 32.733797 -117.202142 153 25ft 0kts
23-Jul-20 16:38 32.733797 -117.202142 153 25ft 0kts
23-Jul-20 16:39 32.733797 -117.202142 153 25ft 0kts
23-Jul-20 16:40 32.733797 -117.202142 153 25ft 0kts
23-Jul-20 16:41 32.733797 -117.202142 153 25ft 0kts
23-Jul-20 16:42 32.733797 -117.202142 153 25ft 0kts
23-Jul-20 16:43 32.733797 -117.202142 153 25ft 0kts
23-Jul-20 16:44 32.733797 -117.202142 153 25ft 0kts
23-Jul-20 16:45 32.733797 -117.202142 153 25ft 0kts
23-Jul-20 16:46 32.733797 -117.202142 153 25ft 0kts
23-Jul-20 16:47 32.733797 -117.202142 153 25ft 0kts
23-Jul-20 16:48 32.733797 -117.202142 153 25ft 0kts
23-Jul-20 16:49 32.733797 -117.202142 153 25ft 0kts
23-Jul-20 16:50 32.733797 -117.202142 153 25ft 0kts
23-Jul-20 16:51 32.733797 -117.202142 153 25ft 0kts
23-Jul-20 16:52 32.733797 -117.202142 153 25ft 0kts
23-Jul-20 16:53 32.733798 -117.202142 153 25ft 0kts
23-Jul-20 16:54 32.734127 -117.202336 137 25ft 1kts
23-Jul-20 16:55 32.733996 -117.202708 13 25ft 0kts
23-Jul-20 16:56 32.733997 -117.202708 13 25ft 0kts
23-Jul-20 16:57 32.734170 -117.202655 14 25ft 7kts
23-Jul-20 16:58 32.734786 -117.199005 105 25ft 20kts
23-Jul-20 16:59 32.733359 -117.193157 106 25ft 19kts
23-Jul-20 17:00 32.732278 -117.188651 105 25ft 24kts
23-Jul-20 17:01 32.731526 -117.185551 105 25ft 24kts
23-Jul-20 17:02 32.729960 -117.179033 106 25ft 21kts
23-Jul-20 17:03 32.729507 -117.176853 82 25ft 0kts
23-Jul-20 17:04 32.730445 -117.176799 286 25ft 24kts
23-Jul-20 17:05 32.744537 -117.232587 299 2382ft 174kts
23-Jul-20 17:06 32.778981 -117.285637 304 4439ft 245kts
23-Jul-20 17:07 32.823085 -117.354884 306 7686ft 274kts
23-Jul-20 17:08 32.870794 -117.428774 305 10423ft 308kts
23-Jul-20 17:09 32.929935 -117.520622 306 11874ft 374kts
23-Jul-20 17:10 32.994553 -117.621408 306 14633ft 386kts
23-Jul-20 17:11 33.058073 -117.719474 309 16608ft 411kts
23-Jul-20 17:12 33.141927 -117.809057 316 18721ft 428kts
23-Jul-20 17:13 33.235456 -117.902829 317 20850ft 440kts
23-Jul-20 17:14 33.331828 -117.996592 317 22760ft 449kts
23-Jul-20 17:15 33.432557 -118.095075 317 23643ft 478kts
23-Jul-20 17:16 33.533425 -118.192156 321 25078ft 488kts
23-Jul-20 17:17 33.647498 -118.270696 331 26460ft 493kts
23-Jul-20 17:18 33.774807 -118.303215 9 26970ft 484kts
23-Jul-20 17:19 33.885631 -118.207089 58 26961ft 505kts
23-Jul-20 17:20 33.939491 -118.053952 60 26945ft 505kts
23-Jul-20 17:21 34.015230 -117.909062 54 26956ft 504kts
23-Jul-20 17:22 34.096287 -117.769809 50 26966ft 504kts
23-Jul-20 17:23 34.179700 -117.646089 48 26959ft 504kts
23-Jul-20 17:24 34.267830 -117.516784 48 26960ft 504kts
23-Jul-20 17:25 34.356986 -117.385806 48 26954ft 501kts
23-Jul-20 17:26 34.447493 -117.254087 50 26956ft 516kts
23-Jul-20 17:27 34.540246 -117.115724 50 26953ft 521kts
23-Jul-20 17:28 34.632633 -116.978266 50 26906ft 522kts
23-Jul-20 17:29 34.725208 -116.840207 50 26862ft 524kts
23-Jul-20 17:30 34.817971 -116.701735 49 26861ft 524kts
23-Jul-20 17:31 34.922890 -116.579693 38 26856ft 510kts
23-Jul-20 17:32 35.028337 -116.476359 38 25465ft 467kts
23-Jul-20 17:33 35.121604 -116.378267 45 23870ft 429kts
23-Jul-20 17:34 35.202123 -116.278686 46 23646ft 414kts
23-Jul-20 17:35 35.281660 -116.179254 46 21699ft 400kts
23-Jul-20 17:36 35.359873 -116.080970 46 19799ft 402kts
23-Jul-20 17:37 35.436522 -115.984254 46 18172ft 381kts
23-Jul-20 17:38 35.510176 -115.890879 46 16664ft 378kts
23-Jul-20 17:39 35.582276 -115.799356 46 14819ft 367kts
23-Jul-20 17:40 35.652068 -115.710499 46 13216ft 350kts
23-Jul-20 17:41 35.716288 -115.628019 45 13030ft 329kts
23-Jul-20 17:42 35.795689 -115.575530 8 13027ft 327kts
23-Jul-20 17:43 35.886836 -115.568251 0 13021ft 327kts
23-Jul-20 17:44 35.971563 -115.535113 45 12941ft 325kts
23-Jul-20 17:45 36.012303 -115.435389 69 11368ft 322kts
23-Jul-20 17:46 36.028100 -115.335104 96 10728ft 288kts
23-Jul-20 17:47 36.021052 -115.236109 98 9465ft 285kts
23-Jul-20 17:48 36.014627 -115.136764 96 7292ft 295kts
23-Jul-20 17:49 36.065944 -115.072681 11 6006ft 272kts
23-Jul-20 17:50 36.137000 -115.055157 11 5963ft 257kts
23-Jul-20 17:51 36.208247 -115.052545 312 4264ft 255kts
23-Jul-20 17:52 36.190068 -115.110491 189 4239ft 221kts
23-Jul-20 17:53 36.137225 -115.131789 206 3318ft 184kts
23-Jul-20 17:54 36.098981 -115.153226 202 2160ft 150kts
23-Jul-20 17:55 36.081737 -115.162439 121 2121ft 4kts
23-Jul-20 17:56 36.081626 -115.158488 90 2121ft 19kts
23-Jul-20 17:57 36.081345 -115.152297 94 2121ft 17kts
23-Jul-20 17:58 36.082253 -115.150987 11 2121ft 0kts

Navigation Log

Ident Type
Flight plan parsing failed, navigation log unavailable